Time;durP1;ratioP1;P1;durP2;ratioP2;P2;SDS_P1;SDS_P2;PMS_P1;PMS_P2;Temp;Humidity;BMP_temperature;BMP_pressure;BME280_temperature;BME280_humidity;BME280_pressure;Samples;Min_cycle;Max_cycle;Signal;HPM_P1;HPM_P2
2023/01/29 00:01:14;;;;;;;4.33;3.93;;;4.30;99.90;;;;;;5071540;28;20213;-68
2023/01/29 00:03:40;;;;;;;4.83;4.30;;;4.30;99.90;;;;;;5071585;28;20213;-68
2023/01/29 00:06:09;;;;;;;5.27;4.27;;;4.40;99.90;;;;;;5070906;28;20703;-68
2023/01/29 00:08:38;;;;;;;5.60;4.30;;;4.30;99.90;;;;;;5071130;28;20302;-68
2023/01/29 00:11:06;;;;;;;4.87;4.17;;;4.00;99.90;;;;;;5071797;28;20244;-68
2023/01/29 00:13:34;;;;;;;4.17;3.63;;;3.60;99.90;;;;;;5074876;28;20213;-68
2023/01/29 00:16:01;;;;;;;5.40;4.20;;;3.40;99.90;;;;;;5074662;28;20228;-69
2023/01/29 00:18:28;;;;;;;4.60;4.00;;;3.50;99.90;;;;;;5074460;28;20221;-68
2023/01/29 00:20:56;;;;;;;4.93;4.43;;;3.50;99.90;;;;;;5074465;28;20296;-67
2023/01/29 00:23:23;;;;;;;4.70;3.87;;;3.60;99.90;;;;;;5074551;28;20204;-68
2023/01/29 00:25:51;;;;;;;6.63;3.97;;;3.60;99.90;;;;;;5074508;28;20205;-67
2023/01/29 00:28:18;;;;;;;4.70;3.93;;;3.70;99.90;;;;;;5074867;28;20358;-68
2023/01/29 00:30:45;;;;;;;4.17;3.77;;;3.60;99.90;;;;;;5077042;28;20254;-67
2023/01/29 00:33:12;;;;;;;4.80;4.30;;;3.60;99.90;;;;;;5075004;28;20209;-67
2023/01/29 00:35:41;;;;;;;5.03;4.50;;;3.80;99.90;;;;;;5074391;28;20209;-68
2023/01/29 00:38:08;;;;;;;5.63;4.53;;;3.80;99.90;;;;;;5073909;28;20776;-67
2023/01/29 00:46:06;;;;;;;5.87;4.23;;;4.10;99.90;;;;;;5073893;28;20212;-67
2023/01/29 00:48:33;;;;;;;5.83;4.60;;;4.20;99.90;;;;;;5074433;28;20256;-68
2023/01/29 00:51:00;;;;;;;4.90;4.23;;;4.30;99.90;;;;;;5074288;28;20232;-68
2023/01/29 00:53:26;;;;;;;4.40;3.73;;;4.40;99.90;;;;;;5074096;28;20646;-68
2023/01/29 00:55:53;;;;;;;4.70;4.20;;;4.30;99.90;;;;;;5073891;28;20267;-68
2023/01/29 00:58:32;;;;;;;5.67;4.03;;;4.00;99.90;;;;;;5073753;28;20286;-67
2023/01/29 01:01:00;;;;;;;6.17;3.87;;;3.90;99.90;;;;;;5074561;28;20244;-68
2023/01/29 01:03:27;;;;;;;4.20;3.80;;;3.90;99.90;;;;;;5074036;28;20241;-68
2023/01/29 01:06:04;;;;;;;4.33;3.50;;;3.70;99.90;;;;;;5074175;28;20201;-68
2023/01/29 01:11:14;;;;;;;4.17;3.77;;;3.70;99.90;;;;;;5073771;28;20679;-71
2023/01/29 01:13:42;;;;;;;5.13;4.30;;;3.80;99.90;;;;;;5073699;28;20618;-68
2023/01/29 01:16:11;;;;;;;5.37;3.90;;;3.90;99.90;;;;;;5075981;28;20303;-67
2023/01/29 01:18:38;;;;;;;4.50;4.10;;;3.90;99.90;;;;;;5075153;28;20261;-67
2023/01/29 01:21:05;;;;;;;5.30;3.83;;;4.00;99.90;;;;;;5074349;28;20205;-68
2023/01/29 01:23:31;;;;;;;4.07;3.60;;;3.90;99.90;;;;;;5072390;28;20217;-68
2023/01/29 01:25:58;;;;;;;4.90;4.10;;;3.80;99.90;;;;;;5073689;28;20289;-68
2023/01/29 01:28:25;;;;;;;5.70;4.00;;;3.80;99.90;;;;;;5073355;28;20233;-69
2023/01/29 01:30:53;;;;;;;4.90;3.97;;;3.70;99.90;;;;;;5073578;28;20232;-68
2023/01/29 01:33:20;;;;;;;4.73;4.03;;;3.40;99.90;;;;;;5073538;28;20204;-69
2023/01/29 01:35:47;;;;;;;4.20;3.80;;;3.20;99.90;;;;;;5073350;28;20213;-69
2023/01/29 01:38:14;;;;;;;4.23;3.80;;;3.30;99.90;;;;;;5074238;28;20229;-68
2023/01/29 01:40:45;;;;;;;4.53;4.00;;;4.00;99.90;;;;;;5073521;28;20211;-67
2023/01/29 01:43:11;;;;;;;4.80;4.10;;;3.50;99.90;;;;;;5073532;28;20201;-68
2023/01/29 01:45:38;;;;;;;4.87;4.27;;;3.70;99.90;;;;;;5073008;28;20212;-69
2023/01/29 01:48:11;;;;;;;5.23;4.10;;;3.70;99.90;;;;;;5072669;28;20311;-69
2023/01/29 01:50:42;;;;;;;4.67;4.13;;;3.80;99.90;;;;;;5073160;28;20247;-68
2023/01/29 01:53:12;;;;;;;5.43;4.40;;;3.80;99.90;;;;;;5073146;28;20580;-68
2023/01/29 01:55:43;;;;;;;5.53;4.10;;;3.80;99.90;;;;;;5073046;28;20217;-69
2023/01/29 01:58:15;;;;;;;4.40;4.00;;;3.50;99.90;;;;;;5072901;28;20221;-67
2023/01/29 02:00:42;;;;;;;4.67;4.20;;;3.20;99.90;;;;;;5072875;28;20201;-68
2023/01/29 02:11:37;;;;;;;4.33;3.93;;;3.00;99.90;;;;;;5072680;28;20254;-68
2023/01/29 02:14:04;;;;;;;4.27;3.87;;;3.00;99.90;;;;;;5072579;28;20243;-68
2023/01/29 02:16:33;;;;;;;5.20;3.97;;;3.10;99.90;;;;;;5072433;28;20227;-67
2023/01/29 02:19:02;;;;;;;4.63;4.13;;;3.10;99.90;;;;;;5072668;28;20695;-68
2023/01/29 02:21:52;;;;;;;5.63;4.47;;;3.00;99.90;;;;;;5073211;28;20274;-68
2023/01/29 02:24:58;;;;;;;4.33;3.87;;;3.00;99.90;;;;;;5073183;28;20208;-68
2023/01/29 02:27:35;;;;;;;4.23;3.83;;;2.90;99.90;;;;;;5105936;22;20318;-58
2023/01/29 02:30:09;;;;;;;5.50;4.67;;;2.80;99.90;;;;;;5107923;28;20216;-58
2023/01/29 02:32:53;;;;;;;4.43;4.00;;;2.80;99.90;;;;;;5093698;28;20252;-58
2023/01/29 02:35:28;;;;;;;5.00;4.50;;;3.00;99.90;;;;;;5093306;28;20210;-58
2023/01/29 02:38:02;;;;;;;5.33;4.37;;;3.10;99.90;;;;;;5093407;28;20238;-58
2023/01/29 02:40:35;;;;;;;5.03;4.53;;;3.00;99.90;;;;;;5093412;28;20200;-57
2023/01/29 02:43:08;;;;;;;5.03;4.00;;;3.20;99.90;;;;;;5093606;28;20208;-57
2023/01/29 02:45:45;;;;;;;4.33;3.93;;;3.30;99.90;;;;;;5093304;28;20207;-57
2023/01/29 02:48:17;;;;;;;4.40;3.73;;;3.30;99.90;;;;;;5092993;28;20231;-57
2023/01/29 02:50:48;;;;;;;4.60;3.67;;;3.20;99.90;;;;;;5093347;28;20220;-57
2023/01/29 02:53:19;;;;;;;4.97;4.03;;;3.10;99.90;;;;;;5092821;28;20208;-57
2023/01/29 02:55:52;;;;;;;5.23;4.30;;;3.20;99.90;;;;;;5093179;28;20578;-57
2023/01/29 02:58:27;;;;;;;4.63;4.07;;;3.40;99.90;;;;;;5092614;28;20230;-57
2023/01/29 03:01:00;;;;;;;4.50;4.10;;;3.50;99.90;;;;;;5093110;28;20211;-57
2023/01/29 03:03:32;;;;;;;4.67;4.27;;;3.70;99.90;;;;;;5092722;28;20204;-58
2023/01/29 03:06:05;;;;;;;5.90;4.77;;;3.80;99.90;;;;;;5092810;28;20224;-57
2023/01/29 03:08:41;;;;;;;5.07;4.20;;;3.80;99.90;;;;;;5093328;28;20228;-58
2023/01/29 03:11:12;;;;;;;4.53;4.10;;;3.80;99.90;;;;;;5092966;28;20230;-57
2023/01/29 03:13:43;;;;;;;4.47;3.93;;;3.50;99.90;;;;;;5092868;28;20204;-57
2023/01/29 03:16:19;;;;;;;5.03;4.20;;;3.30;99.90;;;;;;5092624;28;20239;-57
2023/01/29 03:18:52;;;;;;;7.07;4.33;;;3.00;99.90;;;;;;5093053;28;20228;-57
2023/01/29 03:32:31;;;;;;;8.73;4.70;;;3.10;99.90;;;;;;5092527;28;20644;-58
2023/01/29 03:35:04;;;;;;;6.03;4.50;;;3.40;99.90;;;;;;5092427;28;20246;-58
2023/01/29 03:37:36;;;;;;;5.20;4.70;;;3.60;99.90;;;;;;5092128;28;20235;-56
2023/01/29 03:40:05;;;;;;;4.87;4.27;;;3.70;99.90;;;;;;5092440;28;20196;-57
2023/01/29 03:42:46;;;;;;;5.07;4.50;;;3.90;99.90;;;;;;5092688;28;20201;-59
2023/01/29 03:45:19;;;;;;;5.67;4.60;;;4.00;99.90;;;;;;5092178;28;20219;-57
2023/01/29 03:47:54;;;;;;;5.60;4.50;;;4.00;99.90;;;;;;5094911;28;20223;-58
2023/01/29 03:50:32;;;;;;;4.77;4.27;;;4.00;99.90;;;;;;5096117;28;20227;-57
2023/01/29 03:53:06;;;;;;;5.07;4.37;;;4.00;99.90;;;;;;5095902;28;20692;-57
2023/01/29 03:55:38;;;;;;;4.77;4.30;;;4.00;99.90;;;;;;5096085;28;20199;-58
2023/01/29 03:58:10;;;;;;;5.03;4.40;;;4.10;99.90;;;;;;5096080;28;20281;-58
2023/01/29 04:00:41;;;;;;;5.00;4.33;;;4.00;99.90;;;;;;5096163;28;20322;-57
2023/01/29 04:03:16;;;;;;;4.90;4.40;;;3.90;99.90;;;;;;5096208;28;20193;-57
2023/01/29 04:05:47;;;;;;;5.10;4.60;;;3.80;99.90;;;;;;5095567;28;20203;-58
2023/01/29 04:08:20;;;;;;;6.23;4.23;;;3.90;99.90;;;;;;5095383;28;20231;-56
2023/01/29 04:10:49;;;;;;;4.40;4.00;;;3.90;99.90;;;;;;5095687;28;20224;-58
2023/01/29 04:13:17;;;;;;;5.13;4.60;;;3.90;99.90;;;;;;5095879;28;20675;-57
2023/01/29 04:15:49;;;;;;;5.20;4.30;;;3.90;99.90;;;;;;5095770;28;20196;-57
2023/01/29 04:18:17;;;;;;;4.23;3.83;;;3.80;99.90;;;;;;5095756;28;20224;-57
2023/01/29 04:20:44;;;;;;;4.73;4.23;;;3.80;99.90;;;;;;5095332;28;20196;-57
2023/01/29 04:23:20;;;;;;;4.60;4.07;;;3.80;99.90;;;;;;5095936;28;20212;-58
2023/01/29 04:25:57;;;;;;;4.67;4.17;;;3.80;99.90;;;;;;5095967;28;20316;-57
2023/01/29 04:28:28;;;;;;;6.17;4.07;;;3.90;99.90;;;;;;5095145;28;20236;-57
2023/01/29 04:31:00;;;;;;;5.83;4.60;;;3.70;99.90;;;;;;5095556;28;20223;-58
2023/01/29 04:33:39;;;;;;;5.33;4.20;;;3.70;99.90;;;;;;5095828;28;20210;-56
2023/01/29 04:36:27;;;;;;;6.23;4.60;;;3.70;99.90;;;;;;5095319;28;20200;-58
2023/01/29 04:39:04;;;;;;;4.73;4.07;;;3.60;99.90;;;;;;5095519;28;20225;-58
2023/01/29 04:41:35;;;;;;;5.20;4.40;;;3.40;99.90;;;;;;5095245;28;20204;-58
2023/01/29 04:44:11;;;;;;;6.83;4.53;;;3.20;99.90;;;;;;5095533;28;20208;-57
2023/01/29 04:46:47;;;;;;;5.00;4.00;;;3.30;99.90;;;;;;5095270;28;20584;-57
2023/01/29 04:49:22;;;;;;;4.67;4.23;;;3.50;99.90;;;;;;5095266;28;20705;-57
2023/01/29 04:51:56;;;;;;;4.50;4.10;;;3.60;99.90;;;;;;5095006;28;20326;-59
2023/01/29 04:54:32;;;;;;;4.90;4.40;;;3.70;99.90;;;;;;5095472;28;20208;-58
2023/01/29 04:57:08;;;;;;;4.73;4.23;;;3.90;99.90;;;;;;5094381;28;20582;-57
2023/01/29 04:59:41;;;;;;;5.83;4.47;;;3.90;99.90;;;;;;5094937;28;20640;-57
2023/01/29 05:02:09;;;;;;;5.03;4.17;;;3.90;99.90;;;;;;5095240;28;20207;-56
2023/01/29 05:04:39;;;;;;;5.40;4.50;;;3.90;99.90;;;;;;5095181;28;20204;-56
2023/01/29 05:07:11;;;;;;;4.80;4.27;;;3.80;99.90;;;;;;5094649;28;20200;-57
2023/01/29 05:09:39;;;;;;;5.30;4.33;;;3.80;99.90;;;;;;5094798;28;20212;-58
2023/01/29 05:12:08;;;;;;;5.33;4.27;;;3.90;99.90;;;;;;5094745;28;20204;-59
2023/01/29 05:14:37;;;;;;;6.60;4.40;;;3.90;99.90;;;;;;5094902;28;20211;-57
2023/01/29 05:17:10;;;;;;;5.20;4.70;;;3.90;99.90;;;;;;5094336;28;20215;-58
2023/01/29 05:19:38;;;;;;;5.17;4.40;;;3.90;99.90;;;;;;5094726;28;20580;-58
2023/01/29 05:22:06;;;;;;;6.20;4.67;;;3.80;99.90;;;;;;5094735;28;20204;-58
2023/01/29 05:24:35;;;;;;;8.00;4.40;;;3.90;99.90;;;;;;5094389;28;20691;-57
2023/01/29 05:29:47;;;;;;;5.03;4.53;;;4.00;99.90;;;;;;5094538;28;20670;-57
2023/01/29 05:32:14;;;;;;;5.40;4.60;;;3.90;99.90;;;;;;5094366;28;20208;-58
2023/01/29 05:34:42;;;;;;;7.37;4.83;;;3.90;99.90;;;;;;5094244;28;20212;-58
2023/01/29 05:37:10;;;;;;;5.50;4.77;;;3.70;99.90;;;;;;5094019;28;20632;-57
2023/01/29 05:39:36;;;;;;;6.30;4.60;;;3.60;99.90;;;;;;5094632;28;20200;-58
2023/01/29 05:42:04;;;;;;;5.93;4.93;;;3.70;99.90;;;;;;5094335;28;20590;-57
2023/01/29 05:44:31;;;;;;;6.00;5.10;;;3.70;99.90;;;;;;5094535;28;20204;-58
2023/01/29 05:46:57;;;;;;;7.57;4.93;;;3.80;99.90;;;;;;5093983;28;20204;-58
2023/01/29 05:49:24;;;;;;;6.00;4.57;;;3.80;99.90;;;;;;5094552;28;20601;-57
2023/01/29 05:51:52;;;;;;;5.43;4.73;;;3.80;99.90;;;;;;5093836;28;20227;-57
2023/01/29 05:54:19;;;;;;;6.77;4.80;;;3.90;99.90;;;;;;5094438;28;20205;-58
2023/01/29 05:56:46;;;;;;;5.93;4.47;;;3.90;99.90;;;;;;5093493;28;20257;-57
2023/01/29 05:59:12;;;;;;;5.47;4.97;;;3.90;99.90;;;;;;5093732;28;20231;-58
2023/01/29 06:01:39;;;;;;;7.83;4.93;;;3.90;99.90;;;;;;5093723;28;20694;-58
2023/01/29 06:04:06;;;;;;;6.33;5.00;;;3.90;99.90;;;;;;5093852;28;20204;-57
2023/01/29 06:06:33;;;;;;;5.60;4.87;;;4.00;99.90;;;;;;5093530;28;20211;-58
2023/01/29 06:09:01;;;;;;;5.73;4.90;;;3.90;99.90;;;;;;5092878;28;20225;-58
2023/01/29 06:11:27;;;;;;;7.07;5.30;;;3.90;99.90;;;;;;5093652;28;20710;-59
2023/01/29 06:13:54;;;;;;;8.37;5.00;;;3.60;99.90;;;;;;5093858;28;20204;-57
2023/01/29 06:16:21;;;;;;;11.23;7.63;;;3.50;99.90;;;;;;5093795;28;20219;-57
2023/01/29 06:18:47;;;;;;;5.77;5.17;;;3.60;99.90;;;;;;5093421;28;20228;-58
2023/01/29 06:21:14;;;;;;;6.83;4.60;;;3.70;99.90;;;;;;5093436;28;20290;-58
2023/01/29 06:23:41;;;;;;;6.50;5.10;;;3.80;99.90;;;;;;5093673;28;20266;-57
2023/01/29 06:26:12;;;;;;;5.97;5.10;;;3.80;99.90;;;;;;5093469;28;20213;-58
2023/01/29 06:28:39;;;;;;;11.03;6.17;;;3.80;99.90;;;;;;5093005;28;20239;-57
2023/01/29 06:31:07;;;;;;;6.00;5.40;;;3.80;99.90;;;;;;5093144;28;20235;-58
2023/01/29 06:33:34;;;;;;;7.40;5.00;;;3.80;99.90;;;;;;5093209;28;20211;-59
2023/01/29 06:36:02;;;;;;;4.97;4.40;;;3.70;99.90;;;;;;5093429;28;20212;-58
2023/01/29 06:38:30;;;;;;;7.40;5.13;;;3.40;99.90;;;;;;5093293;28;20231;-58
2023/01/29 06:40:57;;;;;;;6.20;5.30;;;3.10;99.90;;;;;;5093244;28;20207;-58
2023/01/29 06:43:25;;;;;;;7.43;5.07;;;3.10;99.90;;;;;;5093830;28;20223;-58
2023/01/29 06:45:54;;;;;;;7.00;4.80;;;3.20;99.90;;;;;;5093633;28;20212;-58
2023/01/29 06:48:22;;;;;;;6.97;4.83;;;3.30;99.90;;;;;;5093077;28;20571;-58
2023/01/29 06:50:49;;;;;;;6.90;5.27;;;3.40;99.90;;;;;;5093070;28;20220;-58
2023/01/29 06:53:16;;;;;;;6.83;4.90;;;3.50;99.90;;;;;;5093197;28;20230;-57
2023/01/29 06:55:44;;;;;;;5.37;4.87;;;3.60;99.90;;;;;;5093232;28;20212;-56
2023/01/29 06:58:12;;;;;;;5.43;4.83;;;3.50;99.90;;;;;;5092703;28;20232;-57
2023/01/29 07:00:40;;;;;;;5.60;4.93;;;3.40;99.90;;;;;;5093050;28;20235;-57
2023/01/29 07:03:09;;;;;;;9.33;5.97;;;3.20;99.90;;;;;;5092992;28;20212;-57
2023/01/29 07:05:35;;;;;;;9.90;6.67;;;3.10;99.90;;;;;;5093352;28;20204;-57
2023/01/29 07:08:02;;;;;;;8.37;5.53;;;3.30;99.90;;;;;;5092636;28;20715;-57
2023/01/29 07:10:29;;;;;;;10.23;6.50;;;3.40;99.90;;;;;;5093094;28;20204;-59
2023/01/29 07:12:55;;;;;;;6.43;5.00;;;3.40;99.90;;;;;;5092891;28;20234;-58
2023/01/29 07:15:22;;;;;;;8.50;6.83;;;3.60;99.90;;;;;;5092888;28;20216;-57
2023/01/29 07:18:01;;;;;;;5.60;4.90;;;3.60;99.90;;;;;;5092464;28;20228;-57
2023/01/29 07:20:29;;;;;;;7.37;5.63;;;3.80;99.90;;;;;;5093356;28;20200;-58
2023/01/29 07:22:56;;;;;;;13.07;8.80;;;3.90;99.90;;;;;;5096647;28;20204;-57
2023/01/29 07:25:24;;;;;;;10.77;7.43;;;3.90;99.90;;;;;;5097064;28;20258;-58
2023/01/29 07:27:51;;;;;;;7.33;5.83;;;4.00;99.90;;;;;;5097130;28;20400;-57
2023/01/29 07:30:18;;;;;;;8.63;6.50;;;4.00;99.90;;;;;;5097058;28;20214;-58
2023/01/29 07:32:45;;;;;;;6.97;6.07;;;4.00;99.90;;;;;;5096870;28;20227;-57
2023/01/29 07:35:13;;;;;;;5.47;4.80;;;4.00;99.90;;;;;;5097552;28;20369;-58
2023/01/29 07:37:40;;;;;;;9.43;5.27;;;4.10;99.90;;;;;;5096742;28;20228;-57
2023/01/29 07:40:10;;;;;;;5.87;5.10;;;4.20;99.90;;;;;;5097697;28;20245;-57
2023/01/29 07:42:38;;;;;;;7.93;6.10;;;4.20;99.90;;;;;;5098356;28;20211;-57
2023/01/29 07:45:06;;;;;;;5.47;4.67;;;4.30;99.90;;;;;;5097517;28;20257;-57
2023/01/29 07:47:33;;;;;;;8.20;6.00;;;4.20;99.90;;;;;;5096881;28;20230;-57
2023/01/29 07:50:00;;;;;;;6.70;5.47;;;4.00;99.90;;;;;;5097525;28;20613;-57
2023/01/29 07:52:29;;;;;;;8.33;6.10;;;4.10;99.90;;;;;;5097587;28;20235;-57
2023/01/29 07:54:56;;;;;;;6.43;5.30;;;4.10;99.90;;;;;;5097612;28;20205;-57
2023/01/29 07:57:23;;;;;;;6.03;4.83;;;4.20;99.90;;;;;;5097169;28;20235;-57
2023/01/29 07:59:50;;;;;;;5.67;5.10;;;4.30;99.90;;;;;;5097182;28;20219;-58
2023/01/29 08:02:17;;;;;;;8.00;5.20;;;4.30;99.90;;;;;;5099186;28;20209;-58
2023/01/29 08:04:43;;;;;;;8.53;5.50;;;4.50;99.90;;;;;;5100085;28;20585;-58
2023/01/29 08:07:10;;;;;;;7.80;4.90;;;4.60;99.90;;;;;;5097465;28;20251;-58
2023/01/29 08:09:38;;;;;;;8.93;6.30;;;4.60;99.90;;;;;;5097364;28;20208;-58
2023/01/29 08:12:05;;;;;;;7.13;5.40;;;4.60;99.90;;;;;;5096995;28;20228;-60
2023/01/29 08:14:32;;;;;;;9.10;5.33;;;4.70;99.90;;;;;;5096775;28;20230;-58
2023/01/29 08:16:58;;;;;;;5.87;4.90;;;4.60;99.90;;;;;;5096139;28;20204;-58
2023/01/29 08:19:25;;;;;;;5.90;5.20;;;4.30;99.90;;;;;;5097087;28;20587;-58
2023/01/29 08:21:52;;;;;;;6.87;5.60;;;4.00;99.90;;;;;;5096434;28;20212;-57
2023/01/29 08:24:18;;;;;;;81.07;57.20;;;3.80;99.90;;;;;;5095773;28;20261;-61
2023/01/29 08:26:46;;;;;;;53.67;41.17;;;3.80;99.90;;;;;;5095740;28;20211;-58
2023/01/29 08:29:13;;;;;;;6.00;5.40;;;3.80;99.90;;;;;;5096591;28;20211;-58
2023/01/29 08:31:40;;;;;;;5.63;4.83;;;3.70;99.90;;;;;;5095791;28;20591;-58
2023/01/29 08:34:07;;;;;;;6.13;5.20;;;3.60;99.90;;;;;;5096402;28;20212;-57
2023/01/29 08:36:34;;;;;;;5.83;5.00;;;3.60;99.90;;;;;;5096417;28;20200;-59
2023/01/29 08:39:01;;;;;;;8.70;5.63;;;3.60;99.90;;;;;;5096226;28;20223;-58
2023/01/29 08:41:27;;;;;;;6.17;5.57;;;3.50;99.90;;;;;;5096991;28;20296;-59
2023/01/29 08:43:56;;;;;;;5.10;4.60;;;3.70;99.90;;;;;;5097125;28;20286;-59
2023/01/29 08:46:23;;;;;;;6.47;5.53;;;3.80;99.90;;;;;;5096749;28;20277;-59
2023/01/29 08:48:49;;;;;;;6.33;5.00;;;4.00;99.90;;;;;;5096318;28;20236;-58
2023/01/29 08:51:16;;;;;;;7.70;5.97;;;4.20;99.90;;;;;;5096163;28;20220;-58
2023/01/29 08:53:43;;;;;;;8.57;6.60;;;4.30;99.90;;;;;;5095717;28;20216;-57
2023/01/29 08:56:10;;;;;;;6.20;4.90;;;4.50;99.90;;;;;;5096024;28;20212;-57
2023/01/29 08:58:36;;;;;;;7.23;5.93;;;4.70;99.90;;;;;;5095454;28;20708;-58
2023/01/29 09:01:08;;;;;;;9.07;5.60;;;4.70;99.90;;;;;;5095949;28;20212;-58
2023/01/29 09:03:35;;;;;;;10.83;6.37;;;4.80;99.90;;;;;;5095509;28;20212;-60
2023/01/29 09:06:02;;;;;;;29.43;22.50;;;5.00;99.90;;;;;;5095708;28;20215;-58
2023/01/29 09:08:29;;;;;;;14.43;9.20;;;5.10;99.90;;;;;;5095916;28;20246;-58
2023/01/29 09:10:59;;;;;;;5.97;5.20;;;5.30;99.90;;;;;;5095734;28;20210;-57
2023/01/29 09:13:26;;;;;;;8.20;4.70;;;5.50;99.90;;;;;;5095987;28;20262;-57
2023/01/29 09:15:52;;;;;;;5.87;5.20;;;5.60;99.90;;;;;;5095870;28;20222;-57
2023/01/29 09:18:21;;;;;;;5.90;4.80;;;5.50;99.90;;;;;;5096225;28;20228;-57
2023/01/29 09:20:48;;;;;;;7.40;5.30;;;5.50;99.90;;;;;;5095684;28;20248;-58
2023/01/29 09:23:14;;;;;;;6.87;5.20;;;5.60;99.90;;;;;;5096082;28;20298;-59
2023/01/29 09:25:43;;;;;;;7.87;4.87;;;5.70;99.90;;;;;;5095899;28;20684;-58
2023/01/29 09:28:10;;;;;;;6.10;5.00;;;5.20;99.90;;;;;;5095340;28;20519;-58
2023/01/29 09:30:37;;;;;;;13.30;7.60;;;4.90;99.90;;;;;;5095414;28;20205;-57
2023/01/29 09:33:04;;;;;;;8.07;4.90;;;4.60;99.90;;;;;;5095211;28;20650;-58
2023/01/29 09:35:33;;;;;;;8.87;6.40;;;4.50;99.90;;;;;;5095503;28;20204;-58
2023/01/29 09:37:59;;;;;;;6.00;5.40;;;4.70;99.90;;;;;;5095225;28;20224;-58
2023/01/29 09:40:34;;;;;;;5.90;5.23;;;4.80;99.90;;;;;;5095577;28;20201;-57
2023/01/29 09:43:06;;;;;;;10.20;5.63;;;4.90;99.90;;;;;;5095351;28;20204;-58
2023/01/29 09:45:33;;;;;;;6.73;5.07;;;5.10;99.90;;;;;;5094256;28;20204;-57
2023/01/29 09:48:04;;;;;;;6.73;4.97;;;5.20;99.90;;;;;;5095365;28;20230;-59
2023/01/29 09:50:36;;;;;;;6.67;5.90;;;5.30;99.90;;;;;;5096060;28;20235;-58
2023/01/29 09:53:08;;;;;;;6.77;5.60;;;5.50;99.90;;;;;;5095571;28;20227;-58
2023/01/29 09:55:40;;;;;;;7.03;5.67;;;5.70;99.90;;;;;;5095324;28;20267;-58
2023/01/29 09:58:16;;;;;;;16.53;11.43;;;5.90;99.90;;;;;;5094808;28;20594;-58
2023/01/29 10:00:52;;;;;;;6.80;5.97;;;6.10;99.90;;;;;;5095680;28;20207;-58
2023/01/29 10:03:37;;;;;;;10.33;5.67;;;6.30;99.90;;;;;;5095523;28;20615;-59
2023/01/29 10:06:21;;;;;;;5.70;4.90;;;6.70;99.90;;;;;;5095494;28;20208;-60
2023/01/29 10:09:15;;;;;;;5.97;5.37;;;6.80;99.90;;;;;;5094822;28;20318;-58
2023/01/29 10:11:49;;;;;;;4.97;4.53;;;7.00;99.90;;;;;;5095330;28;20281;-59
2023/01/29 10:14:23;;;;;;;6.30;4.63;;;7.10;99.90;;;;;;5095066;28;20212;-59
2023/01/29 10:17:03;;;;;;;7.27;6.03;;;7.30;99.90;;;;;;5094581;28;20200;-59
2023/01/29 10:19:45;;;;;;;5.87;4.57;;;7.50;99.90;;;;;;5095708;28;20215;-58
2023/01/29 10:22:42;;;;;;;82.03;60.87;;;7.60;99.90;;;;;;5094766;28;20207;-59
2023/01/29 10:25:13;;;;;;;6.60;5.13;;;7.60;99.90;;;;;;5094588;28;20290;-59
2023/01/29 10:27:44;;;;;;;6.07;5.30;;;7.70;99.90;;;;;;5094273;28;20227;-58
2023/01/29 10:30:27;;;;;;;5.23;4.70;;;7.60;99.90;;;;;;5095678;28;20236;-59
2023/01/29 10:32:55;;;;;;;5.17;4.67;;;7.60;99.90;;;;;;5096076;28;20305;-59
2023/01/29 10:35:24;;;;;;;5.37;4.83;;;7.60;99.90;;;;;;5094962;28;20245;-59
2023/01/29 10:37:54;;;;;;;7.87;6.13;;;7.60;99.90;;;;;;5094386;28;20264;-61
2023/01/29 10:40:23;;;;;;;19.57;13.80;;;7.60;99.90;;;;;;5095809;28;20208;-60
2023/01/29 10:42:58;;;;;;;6.10;4.90;;;7.60;99.90;;;;;;5094255;28;20200;-58
2023/01/29 10:45:33;;;;;;;5.30;4.80;;;7.50;99.90;;;;;;5093465;28;20204;-58
2023/01/29 10:48:27;;;;;;;5.97;5.17;;;7.50;99.90;;;;;;5093710;28;20224;-57
2023/01/29 10:50:59;;;;;;;5.53;5.03;;;7.40;99.90;;;;;;5093411;28;20229;-61
2023/01/29 10:53:43;;;;;;;5.30;4.80;;;7.40;99.90;;;;;;5110225;28;20597;-62
2023/01/29 10:56:21;;;;;;;9.80;5.23;;;7.70;99.90;;;;;;5113257;28;20203;-62
2023/01/29 10:58:52;;;;;;;32.43;23.13;;;7.90;99.90;;;;;;5113643;28;20234;-64
2023/01/29 11:01:18;;;;;;;6.77;5.53;;;8.00;99.90;;;;;;5113372;28;20215;-58
2023/01/29 11:03:45;;;;;;;5.83;5.30;;;8.10;99.90;;;;;;5113954;28;20204;-61
2023/01/29 11:06:19;;;;;;;7.50;6.10;;;8.30;99.90;;;;;;5113234;28;20199;-63
2023/01/29 11:08:53;;;;;;;6.33;5.73;;;8.20;99.90;;;;;;5112766;28;20219;-59
2023/01/29 11:11:22;;;;;;;5.83;5.23;;;8.20;99.90;;;;;;5113131;28;20211;-60
2023/01/29 11:13:56;;;;;;;7.87;5.67;;;8.10;99.90;;;;;;5112509;28;20219;-59
2023/01/29 11:16:23;;;;;;;6.30;5.70;;;8.20;99.90;;;;;;5113752;28;20203;-59
2023/01/29 11:18:58;;;;;;;6.63;5.50;;;8.20;99.90;;;;;;5113587;28;20257;-59
2023/01/29 11:21:27;;;;;;;8.87;5.87;;;8.30;99.90;;;;;;5114642;28;20225;-61
2023/01/29 11:24:08;;;;;;;7.03;5.30;;;8.10;99.90;;;;;;5112353;28;20211;-60
2023/01/29 11:26:38;;;;;;;5.70;5.10;;;8.20;99.90;;;;;;5112544;28;20204;-61
2023/01/29 11:29:05;;;;;;;7.03;5.40;;;8.30;99.90;;;;;;5113045;28;20238;-63
2023/01/29 11:31:37;;;;;;;14.97;10.00;;;8.20;99.90;;;;;;5114106;28;20246;-61
2023/01/29 11:34:12;;;;;;;9.27;6.77;;;8.20;99.90;;;;;;5113104;28;20571;-62
2023/01/29 11:36:40;;;;;;;6.47;5.43;;;8.40;99.90;;;;;;5113399;28;20226;-60
2023/01/29 11:39:19;;;;;;;6.30;5.70;;;8.50;99.90;;;;;;5113696;28;20227;-63
2023/01/29 11:41:49;;;;;;;9.83;6.73;;;8.50;99.90;;;;;;5113684;28;20755;-61
2023/01/29 11:44:28;;;;;;;7.80;6.93;;;8.40;99.90;;;;;;5113265;28;20698;-61
2023/01/29 11:46:56;;;;;;;7.37;5.97;;;8.40;99.90;;;;;;5114935;28;20208;-61
2023/01/29 11:49:32;;;;;;;6.97;5.47;;;8.30;99.90;;;;;;5114590;28;20203;-60
2023/01/29 11:52:01;;;;;;;8.13;6.30;;;8.20;99.90;;;;;;5113446;28;20203;-64
2023/01/29 11:54:34;;;;;;;7.20;6.00;;;8.00;99.90;;;;;;5112645;28;20215;-60
2023/01/29 11:57:02;;;;;;;6.27;5.67;;;7.70;99.90;;;;;;5112972;28;20214;-58
2023/01/29 11:59:47;;;;;;;7.00;5.60;;;7.20;99.90;;;;;;5112486;28;20663;-61
2023/01/29 12:02:26;;;;;;;6.67;5.73;;;7.00;99.90;;;;;;5113715;28;20203;-64
2023/01/29 12:04:55;;;;;;;7.97;6.43;;;7.10;99.90;;;;;;5112327;28;20238;-60
2023/01/29 12:07:22;;;;;;;7.93;6.17;;;7.10;99.90;;;;;;5112231;28;20227;-59
2023/01/29 12:09:53;;;;;;;9.00;6.77;;;6.90;99.90;;;;;;5116421;28;20656;-61
2023/01/29 12:12:40;;;;;;;7.17;6.23;;;6.90;99.90;;;;;;5116587;28;20231;-63
2023/01/29 12:15:19;;;;;;;8.10;6.30;;;7.00;99.90;;;;;;5119218;28;20214;-64
2023/01/29 12:17:58;;;;;;;8.33;6.93;;;7.10;99.90;;;;;;5118406;28;20253;-60
2023/01/29 12:20:33;;;;;;;8.80;6.60;;;7.20;99.90;;;;;;5117216;28;20647;-59
2023/01/29 12:23:07;;;;;;;7.20;5.87;;;7.20;99.90;;;;;;5116034;28;20206;-60
2023/01/29 12:25:50;;;;;;;8.43;6.87;;;7.30;99.90;;;;;;5116559;28;20214;-60
2023/01/29 12:28:31;;;;;;;7.60;6.80;;;7.20;99.90;;;;;;5115468;28;20233;-61
2023/01/29 12:31:08;;;;;;;7.37;6.63;;;7.10;99.90;;;;;;5116470;28;20211;-62
2023/01/29 12:33:43;;;;;;;7.30;6.60;;;6.80;99.90;;;;;;5115792;28;20227;-61
2023/01/29 12:36:16;;;;;;;7.33;6.60;;;6.70;99.90;;;;;;5115810;28;20206;-59
2023/01/29 12:38:44;;;;;;;10.37;7.57;;;6.80;99.90;;;;;;5116223;28;20235;-61
2023/01/29 12:41:32;;;;;;;8.50;7.53;;;6.90;99.90;;;;;;5116865;28;20206;-58
2023/01/29 12:44:05;;;;;;;9.47;7.57;;;7.00;99.90;;;;;;5116758;28;20435;-61
2023/01/29 12:46:37;;;;;;;7.07;6.37;;;7.00;99.90;;;;;;5116410;28;20207;-59
2023/01/29 12:49:12;;;;;;;7.73;6.87;;;7.10;99.90;;;;;;5116780;28;20231;-65
2023/01/29 12:51:47;;;;;;;8.00;7.20;;;7.20;99.90;;;;;;5116479;28;20607;-63
2023/01/29 12:54:19;;;;;;;9.23;6.20;;;7.30;99.90;;;;;;5116965;28;20279;-62
2023/01/29 12:56:49;;;;;;;7.43;6.57;;;7.40;99.90;;;;;;5116796;28;20571;-59
2023/01/29 12:59:21;;;;;;;8.60;7.30;;;7.80;99.90;;;;;;5116309;28;20583;-65
2023/01/29 13:01:53;;;;;;;8.80;7.37;;;7.90;99.90;;;;;;5116794;28;20209;-62
2023/01/29 13:04:29;;;;;;;8.10;6.90;;;7.80;99.90;;;;;;5116246;28;20211;-62
2023/01/29 13:07:03;;;;;;;8.27;7.27;;;7.40;99.90;;;;;;5117174;28;20203;-65
2023/01/29 13:09:34;;;;;;;7.93;7.13;;;7.10;99.90;;;;;;5116450;28;20203;-58
2023/01/29 13:12:05;;;;;;;16.10;8.90;;;7.10;99.90;;;;;;5115964;28;20211;-59
2023/01/29 13:14:41;;;;;;;7.90;7.07;;;7.20;99.90;;;;;;5115009;28;20223;-59
2023/01/29 13:17:10;;;;;;;8.80;7.43;;;7.20;99.90;;;;;;5115265;28;20736;-61
2023/01/29 13:19:42;;;;;;;9.90;7.13;;;7.20;99.90;;;;;;5115187;28;20204;-62
2023/01/29 13:22:18;;;;;;;9.83;7.83;;;7.00;99.90;;;;;;5115366;28;20230;-59
2023/01/29 13:24:45;;;;;;;7.93;7.13;;;6.50;99.90;;;;;;5114706;28;20547;-59
2023/01/29 13:27:21;;;;;;;9.30;7.70;;;6.10;99.90;;;;;;5114772;28;20246;-60
2023/01/29 13:29:49;;;;;;;9.70;7.50;;;5.80;99.90;;;;;;5116402;28;20207;-59
2023/01/29 13:32:21;;;;;;;7.83;6.97;;;5.80;99.90;;;;;;5115444;28;20354;-59
2023/01/29 13:34:49;;;;;;;8.77;7.63;;;5.70;99.90;;;;;;5115172;28;20588;-60
2023/01/29 13:37:26;;;;;;;8.60;7.70;;;5.80;99.90;;;;;;5116042;28;20242;-63
2023/01/29 13:39:54;;;;;;;8.10;7.23;;;6.00;99.90;;;;;;5116114;28;20588;-64
2023/01/29 13:42:25;;;;;;;10.73;7.13;;;6.20;99.90;;;;;;5115170;28;20207;-60
2023/01/29 13:44:54;;;;;;;7.67;6.97;;;6.20;99.90;;;;;;5114934;28;20253;-61